sensor_id;sensor_type;location;lat;lon;timestamp;pressure;altitude;pressure_sealevel;temperature;humidity
48015;BME280;33780;51.034;7.120;2023-09-08T00:00:27;100966.91;;;19.95;64.05
48015;BME280;33780;51.034;7.120;2023-09-08T00:02:52;100975.41;;;19.91;63.82
48015;BME280;33780;51.034;7.120;2023-09-08T00:05:18;100959.47;;;19.88;63.95
48015;BME280;33780;51.034;7.120;2023-09-08T00:07:43;100961.34;;;19.88;64.03
48015;BME280;33780;51.034;7.120;2023-09-08T00:10:08;100954.41;;;19.85;63.82
48015;BME280;33780;51.034;7.120;2023-09-08T00:12:34;100953.78;;;19.83;64.24
48015;BME280;33780;51.034;7.120;2023-09-08T00:14:59;100955.84;;;19.81;63.96
48015;BME280;33780;51.034;7.120;2023-09-08T00:17:24;100957.91;;;19.79;63.76
48015;BME280;33780;51.034;7.120;2023-09-08T00:19:49;100956.41;;;19.77;64.08
48015;BME280;33780;51.034;7.120;2023-09-08T00:22:15;100955.06;;;19.73;64.05
48015;BME280;33780;51.034;7.120;2023-09-08T00:24:41;100945.41;;;19.70;64.00
48015;BME280;33780;51.034;7.120;2023-09-08T00:27:06;100949.34;;;19.68;63.90
48015;BME280;33780;51.034;7.120;2023-09-08T00:29:31;100949.72;;;19.65;63.99
48015;BME280;33780;51.034;7.120;2023-09-08T00:31:56;100940.94;;;19.63;64.00
48015;BME280;33780;51.034;7.120;2023-09-08T00:34:22;100941.31;;;19.59;63.99
48015;BME280;33780;51.034;7.120;2023-09-08T00:36:47;100947.06;;;19.56;64.21
48015;BME280;33780;51.034;7.120;2023-09-08T00:39:12;100941.13;;;19.53;64.09
48015;BME280;33780;51.034;7.120;2023-09-08T00:41:37;100948.63;;;19.51;64.18
48015;BME280;33780;51.034;7.120;2023-09-08T00:44:03;100945.25;;;19.49;64.27
48015;BME280;33780;51.034;7.120;2023-09-08T00:46:28;100951.06;;;19.46;64.51
48015;BME280;33780;51.034;7.120;2023-09-08T00:48:55;100950.41;;;19.44;63.92
48015;BME280;33780;51.034;7.120;2023-09-08T00:51:21;100955.38;;;19.40;64.20
48015;BME280;33780;51.034;7.120;2023-09-08T00:53:47;100957.38;;;19.38;64.22
48015;BME280;33780;51.034;7.120;2023-09-08T00:56:12;100955.22;;;19.33;64.18
48015;BME280;33780;51.034;7.120;2023-09-08T00:58:37;100952.03;;;19.30;64.38
48015;BME280;33780;51.034;7.120;2023-09-08T01:01:03;100954.28;;;19.26;64.34
48015;BME280;33780;51.034;7.120;2023-09-08T01:03:30;100949.22;;;19.23;64.52
48015;BME280;33780;51.034;7.120;2023-09-08T01:05:56;100942.47;;;19.19;64.38
48015;BME280;33780;51.034;7.120;2023-09-08T01:08:21;100953.31;;;19.19;64.35
48015;BME280;33780;51.034;7.120;2023-09-08T01:10:47;100943.66;;;19.17;64.47
48015;BME280;33780;51.034;7.120;2023-09-08T01:13:13;100958.25;;;19.16;64.55
48015;BME280;33780;51.034;7.120;2023-09-08T01:15:38;100949.47;;;19.14;64.47
48015;BME280;33780;51.034;7.120;2023-09-08T01:18:03;100954.22;;;19.12;64.60
48015;BME280;33780;51.034;7.120;2023-09-08T01:20:45;100948.34;;;19.08;64.62
48015;BME280;33780;51.034;7.120;2023-09-08T01:23:21;100945.63;;;19.08;64.79
48015;BME280;33780;51.034;7.120;2023-09-08T01:25:58;100946.00;;;19.05;64.64
48015;BME280;33780;51.034;7.120;2023-09-08T01:28:25;100951.41;;;19.05;64.79
48015;BME280;33780;51.034;7.120;2023-09-08T01:30:52;100946.16;;;19.04;64.68
48015;BME280;33780;51.034;7.120;2023-09-08T01:33:19;100945.47;;;19.01;64.56
48015;BME280;33780;51.034;7.120;2023-09-08T01:35:44;100941.25;;;18.99;64.64
48015;BME280;33780;51.034;7.120;2023-09-08T01:38:10;100942.28;;;18.98;64.82
48015;BME280;33780;51.034;7.120;2023-09-08T01:40:35;100950.63;;;18.96;64.85
48015;BME280;33780;51.034;7.120;2023-09-08T01:43:01;100939.75;;;18.96;65.06
48015;BME280;33780;51.034;7.120;2023-09-08T01:45:26;100943.69;;;18.94;65.30
48015;BME280;33780;51.034;7.120;2023-09-08T01:47:51;100942.00;;;18.93;65.19
48015;BME280;33780;51.034;7.120;2023-09-08T01:50:16;100929.66;;;18.90;65.11
48015;BME280;33780;51.034;7.120;2023-09-08T01:52:46;100938.16;;;18.87;65.01
48015;BME280;33780;51.034;7.120;2023-09-08T01:55:12;100930.34;;;18.84;65.21
48015;BME280;33780;51.034;7.120;2023-09-08T01:57:37;100933.25;;;18.83;65.12
48015;BME280;33780;51.034;7.120;2023-09-08T02:00:03;100935.47;;;18.79;65.11
48015;BME280;33780;51.034;7.120;2023-09-08T02:02:28;100926.69;;;18.77;65.12
48015;BME280;33780;51.034;7.120;2023-09-08T02:04:53;100923.31;;;18.75;65.19
48015;BME280;33780;51.034;7.120;2023-09-08T02:07:19;100928.06;;;18.73;65.44
48015;BME280;33780;51.034;7.120;2023-09-08T02:09:44;100930.13;;;18.71;65.34
48015;BME280;33780;51.034;7.120;2023-09-08T02:12:09;100931.34;;;18.68;65.38
48015;BME280;33780;51.034;7.120;2023-09-08T02:14:34;100927.09;;;18.66;65.34
48015;BME280;33780;51.034;7.120;2023-09-08T02:17:00;100926.44;;;18.64;65.38
48015;BME280;33780;51.034;7.120;2023-09-08T02:19:25;100928.44;;;18.62;65.41
48015;BME280;33780;51.034;7.120;2023-09-08T02:21:50;100932.19;;;18.61;65.62
48015;BME280;33780;51.034;7.120;2023-09-08T02:24:15;100926.28;;;18.57;65.35
48015;BME280;33780;51.034;7.120;2023-09-08T02:26:41;100928.50;;;18.54;65.27
48015;BME280;33780;51.034;7.120;2023-09-08T02:29:06;100927.84;;;18.52;65.54
48015;BME280;33780;51.034;7.120;2023-09-08T02:31:32;100926.34;;;18.49;65.53
48015;BME280;33780;51.034;7.120;2023-09-08T02:33:58;100921.91;;;18.48;65.46
48015;BME280;33780;51.034;7.120;2023-09-08T02:36:23;100925.81;;;18.46;65.65
48015;BME280;33780;51.034;7.120;2023-09-08T02:38:52;100925.34;;;18.42;65.76
48015;BME280;33780;51.034;7.120;2023-09-08T02:41:17;100920.28;;;18.39;65.65
48015;BME280;33780;51.034;7.120;2023-09-08T02:43:43;100921.31;;;18.38;65.58
48015;BME280;33780;51.034;7.120;2023-09-08T02:46:08;100925.03;;;18.37;65.69
48015;BME280;33780;51.034;7.120;2023-09-08T02:48:34;100923.53;;;18.34;65.85
48015;BME280;33780;51.034;7.120;2023-09-08T02:51:00;100927.25;;;18.33;65.85
48015;BME280;33780;51.034;7.120;2023-09-08T02:53:25;100931.16;;;18.31;66.09
48015;BME280;33780;51.034;7.120;2023-09-08T02:55:53;100924.22;;;18.28;66.00
48015;BME280;33780;51.034;7.120;2023-09-08T02:58:19;100925.25;;;18.27;65.71
48015;BME280;33780;51.034;7.120;2023-09-08T03:00:44;100927.28;;;18.25;65.94
48015;BME280;33780;51.034;7.120;2023-09-08T03:03:09;100928.50;;;18.23;66.00
48015;BME280;33780;51.034;7.120;2023-09-08T03:05:34;100924.09;;;18.22;65.78
48015;BME280;33780;51.034;7.120;2023-09-08T03:08:00;100922.41;;;18.21;65.89
48015;BME280;33780;51.034;7.120;2023-09-08T03:10:25;100926.31;;;18.18;65.99
48015;BME280;33780;51.034;7.120;2023-09-08T03:12:50;100921.06;;;18.17;66.24
48015;BME280;33780;51.034;7.120;2023-09-08T03:15:16;100925.66;;;18.16;66.30
48015;BME280;33780;51.034;7.120;2023-09-08T03:17:41;100925.84;;;18.15;66.32
48015;BME280;33780;51.034;7.120;2023-09-08T03:20:07;100917.00;;;18.12;66.27
48015;BME280;33780;51.034;7.120;2023-09-08T03:22:35;100915.31;;;18.11;66.31
48015;BME280;33780;51.034;7.120;2023-09-08T03:25:00;100920.06;;;18.09;66.45
48015;BME280;33780;51.034;7.120;2023-09-08T03:27:25;100910.25;;;18.08;66.43
48015;BME280;33780;51.034;7.120;2023-09-08T03:29:50;100914.84;;;18.08;66.54
48015;BME280;33780;51.034;7.120;2023-09-08T03:32:16;100916.03;;;18.05;66.16
48015;BME280;33780;51.034;7.120;2023-09-08T03:34:41;100912.47;;;18.05;66.71
48015;BME280;33780;51.034;7.120;2023-09-08T03:37:06;100909.09;;;18.03;66.52
48015;BME280;33780;51.034;7.120;2023-09-08T03:39:31;100898.44;;;18.01;66.57
48015;BME280;33780;51.034;7.120;2023-09-08T03:41:57;100914.22;;;17.98;66.56
48015;BME280;33780;51.034;7.120;2023-09-08T03:44:22;100910.16;;;17.94;66.55
48015;BME280;33780;51.034;7.120;2023-09-08T03:46:47;100912.19;;;17.92;66.47
48015;BME280;33780;51.034;7.120;2023-09-08T03:49:12;100908.81;;;17.90;66.27
48015;BME280;33780;51.034;7.120;2023-09-08T03:51:38;100904.59;;;17.87;66.56
48015;BME280;33780;51.034;7.120;2023-09-08T03:54:03;100912.91;;;17.86;66.72
48015;BME280;33780;51.034;7.120;2023-09-08T03:56:28;100914.28;;;17.81;66.81
48015;BME280;33780;51.034;7.120;2023-09-08T03:58:53;100919.00;;;17.79;66.75
48015;BME280;33780;51.034;7.120;2023-09-08T04:01:19;100921.91;;;17.78;66.69
48015;BME280;33780;51.034;7.120;2023-09-08T04:03:44;100925.59;;;17.77;66.71
48015;BME280;33780;51.034;7.120;2023-09-08T04:06:09;100925.78;;;17.75;66.75
48015;BME280;33780;51.034;7.120;2023-09-08T04:08:34;100932.19;;;17.74;66.63
48015;BME280;33780;51.034;7.120;2023-09-08T04:11:00;100925.09;;;17.73;66.60
48015;BME280;33780;51.034;7.120;2023-09-08T04:13:25;100921.91;;;17.70;66.82
48015;BME280;33780;51.034;7.120;2023-09-08T04:15:50;100935.63;;;17.68;66.80
48015;BME280;33780;51.034;7.120;2023-09-08T04:18:15;100930.34;;;17.67;67.10
48015;BME280;33780;51.034;7.120;2023-09-08T04:20:41;100926.13;;;17.64;66.64
48015;BME280;33780;51.034;7.120;2023-09-08T04:23:06;100929.00;;;17.63;66.92
48015;BME280;33780;51.034;7.120;2023-09-08T04:25:31;100932.72;;;17.62;67.15
48015;BME280;33780;51.034;7.120;2023-09-08T04:27:56;100922.22;;;17.59;67.06
48015;BME280;33780;51.034;7.120;2023-09-08T04:30:22;100923.41;;;17.56;66.97
48015;BME280;33780;51.034;7.120;2023-09-08T04:32:47;100921.22;;;17.51;67.06
48015;BME280;33780;51.034;7.120;2023-09-08T04:35:12;100924.13;;;17.50;67.28
48015;BME280;33780;51.034;7.120;2023-09-08T04:37:38;100923.63;;;17.46;67.17
48015;BME280;33780;51.034;7.120;2023-09-08T04:40:05;100927.16;;;17.47;66.84
48015;BME280;33780;51.034;7.120;2023-09-08T04:42:30;100927.34;;;17.45;67.16
48015;BME280;33780;51.034;7.120;2023-09-08T04:44:56;100920.25;;;17.44;67.54
48015;BME280;33780;51.034;7.120;2023-09-08T04:47:21;100923.13;;;17.43;67.50
48015;BME280;33780;51.034;7.120;2023-09-08T04:49:46;100923.25;;;17.41;67.35
48015;BME280;33780;51.034;7.120;2023-09-08T04:52:11;100923.44;;;17.40;67.59
48015;BME280;33780;51.034;7.120;2023-09-08T04:54:37;100922.75;;;17.38;67.37
48015;BME280;33780;51.034;7.120;2023-09-08T04:57:02;100919.22;;;17.37;67.66
48015;BME280;33780;51.034;7.120;2023-09-08T04:59:28;100923.78;;;17.37;67.47
48015;BME280;33780;51.034;7.120;2023-09-08T05:01:53;100928.53;;;17.35;67.63
48015;BME280;33780;51.034;7.120;2023-09-08T05:04:19;100921.44;;;17.34;67.78
48015;BME280;33780;51.034;7.120;2023-09-08T05:06:44;100929.53;;;17.34;67.80
48015;BME280;33780;51.034;7.120;2023-09-08T05:09:09;100928.69;;;17.33;67.69
48015;BME280;33780;51.034;7.120;2023-09-08T05:11:35;100929.53;;;17.34;67.90
48015;BME280;33780;51.034;7.120;2023-09-08T05:14:00;100925.16;;;17.33;68.01
48015;BME280;33780;51.034;7.120;2023-09-08T05:16:25;100925.31;;;17.31;67.97
48015;BME280;33780;51.034;7.120;2023-09-08T05:19:02;100923.63;;;17.30;67.84
48015;BME280;33780;51.034;7.120;2023-09-08T05:21:28;100929.03;;;17.30;67.87
48015;BME280;33780;51.034;7.120;2023-09-08T05:23:53;100928.19;;;17.30;68.31
48015;BME280;33780;51.034;7.120;2023-09-08T05:26:18;100923.81;;;17.29;68.20
48015;BME280;33780;51.034;7.120;2023-09-08T05:28:44;100932.94;;;17.28;67.90
48015;BME280;33780;51.034;7.120;2023-09-08T05:31:09;100930.22;;;17.28;68.13
48015;BME280;33780;51.034;7.120;2023-09-08T05:33:34;100941.91;;;17.28;68.13
48015;BME280;33780;51.034;7.120;2023-09-08T05:35:59;100931.25;;;17.27;68.15
48015;BME280;33780;51.034;7.120;2023-09-08T05:38:25;100931.25;;;17.27;68.42
48015;BME280;33780;51.034;7.120;2023-09-08T05:40:50;100930.41;;;17.26;68.26
48015;BME280;33780;51.034;7.120;2023-09-08T05:43:16;100932.09;;;17.27;68.25
48015;BME280;33780;51.034;7.120;2023-09-08T05:45:41;100932.09;;;17.27;68.28
48015;BME280;33780;51.034;7.120;2023-09-08T05:48:06;100934.63;;;17.29;68.33
48015;BME280;33780;51.034;7.120;2023-09-08T05:50:31;100938.19;;;17.29;68.38
48015;BME280;33780;51.034;7.120;2023-09-08T05:52:57;100934.81;;;17.27;68.41
48015;BME280;33780;51.034;7.120;2023-09-08T05:55:22;100934.81;;;17.27;68.41
48015;BME280;33780;51.034;7.120;2023-09-08T05:57:47;100936.66;;;17.27;68.64
48015;BME280;33780;51.034;7.120;2023-09-08T06:00:13;100936.66;;;17.27;68.66
48015;BME280;33780;51.034;7.120;2023-09-08T06:02:38;100939.38;;;17.27;68.92
48015;BME280;33780;51.034;7.120;2023-09-08T06:05:03;100939.38;;;17.27;68.84
48015;BME280;33780;51.034;7.120;2023-09-08T06:07:29;100943.75;;;17.28;68.88
48015;BME280;33780;51.034;7.120;2023-09-08T06:09:54;100946.47;;;17.28;69.19
48015;BME280;33780;51.034;7.120;2023-09-08T06:12:20;100950.00;;;17.28;69.51
48015;BME280;33780;51.034;7.120;2023-09-08T06:14:45;100950.00;;;17.28;69.30
48015;BME280;33780;51.034;7.120;2023-09-08T06:17:10;100948.16;;;17.29;69.17
48015;BME280;33780;51.034;7.120;2023-09-08T06:19:35;100953.38;;;17.30;69.26
48015;BME280;33780;51.034;7.120;2023-09-08T06:22:01;100955.06;;;17.31;69.60
48015;BME280;33780;51.034;7.120;2023-09-08T06:24:26;100947.81;;;17.32;69.55
48015;BME280;33780;51.034;7.120;2023-09-08T06:26:51;100955.94;;;17.32;69.60
48015;BME280;33780;51.034;7.120;2023-09-08T06:29:17;100952.03;;;17.34;69.74
48015;BME280;33780;51.034;7.120;2023-09-08T06:31:42;100952.69;;;17.36;69.94
48015;BME280;33780;51.034;7.120;2023-09-08T06:34:07;100953.53;;;17.37;69.92
48015;BME280;33780;51.034;7.120;2023-09-08T06:36:32;100937.66;;;17.42;69.95
48015;BME280;33780;51.034;7.120;2023-09-08T06:38:58;100935.63;;;17.44;70.35
48015;BME280;33780;51.034;7.120;2023-09-08T06:41:23;100935.13;;;17.48;70.14
48015;BME280;33780;51.034;7.120;2023-09-08T06:43:49;100933.56;;;17.54;70.34
48015;BME280;33780;51.034;7.120;2023-09-08T06:46:14;100937.63;;;17.58;70.41
48015;BME280;33780;51.034;7.120;2023-09-08T06:48:40;100937.13;;;17.63;70.76
48015;BME280;33780;51.034;7.120;2023-09-08T06:51:05;100931.19;;;17.67;71.19
48015;BME280;33780;51.034;7.120;2023-09-08T06:53:30;100934.59;;;17.69;71.20
48015;BME280;33780;51.034;7.120;2023-09-08T06:55:56;100939.66;;;17.72;72.06
48015;BME280;33780;51.034;7.120;2023-09-08T06:58:21;100941.84;;;17.77;71.59
48015;BME280;33780;51.034;7.120;2023-09-08T07:00:46;100942.38;;;17.80;71.70
48015;BME280;33780;51.034;7.120;2023-09-08T07:03:11;100939.13;;;17.85;72.03
48015;BME280;33780;51.034;7.120;2023-09-08T07:05:39;100944.69;;;17.92;72.24
48015;BME280;33780;51.034;7.120;2023-09-08T07:08:04;100948.75;;;17.96;71.98
48015;BME280;33780;51.034;7.120;2023-09-08T07:10:31;100948.88;;;18.02;71.94
48015;BME280;33780;51.034;7.120;2023-09-08T07:12:56;100941.06;;;18.07;72.31
48015;BME280;33780;51.034;7.120;2023-09-08T07:15:21;100944.09;;;18.12;72.17
48015;BME280;33780;51.034;7.120;2023-09-08T07:17:47;100934.44;;;18.18;72.84
48015;BME280;33780;51.034;7.120;2023-09-08T07:20:12;100934.75;;;18.23;72.61
48015;BME280;33780;51.034;7.120;2023-09-08T07:22:37;100935.72;;;18.30;72.80
48015;BME280;33780;51.034;7.120;2023-09-08T07:25:06;100933.16;;;18.37;72.56
48015;BME280;33780;51.034;7.120;2023-09-08T07:27:31;100935.16;;;18.43;73.43
48015;BME280;33780;51.034;7.120;2023-09-08T07:29:57;100935.31;;;18.50;73.19
48015;BME280;33780;51.034;7.120;2023-09-08T07:32:22;100931.69;;;18.57;73.42
48015;BME280;33780;51.034;7.120;2023-09-08T07:34:50;100943.34;;;18.66;73.28
48015;BME280;33780;51.034;7.120;2023-09-08T07:37:23;100939.94;;;18.72;73.02
48015;BME280;33780;51.034;7.120;2023-09-08T07:39:49;100944.47;;;18.80;72.96
48015;BME280;33780;51.034;7.120;2023-09-08T07:42:14;100941.72;;;18.88;73.02
48015;BME280;33780;51.034;7.120;2023-09-08T07:44:40;100942.66;;;18.95;73.49
48015;BME280;33780;51.034;7.120;2023-09-08T07:47:05;100948.69;;;19.05;73.55
48015;BME280;33780;51.034;7.120;2023-09-08T07:49:33;100943.38;;;19.12;72.98
48015;BME280;33780;51.034;7.120;2023-09-08T07:51:58;100944.34;;;19.19;73.03
48015;BME280;33780;51.034;7.120;2023-09-08T07:54:24;100936.97;;;19.27;72.88
48015;BME280;33780;51.034;7.120;2023-09-08T07:56:49;100937.91;;;19.35;72.63
48015;BME280;33780;51.034;7.120;2023-09-08T07:59:14;100937.03;;;19.42;72.77
48015;BME280;33780;51.034;7.120;2023-09-08T08:01:40;100933.56;;;19.48;72.50
48015;BME280;33780;51.034;7.120;2023-09-08T08:04:08;100938.28;;;19.54;72.55
48015;BME280;33780;51.034;7.120;2023-09-08T08:06:34;100930.91;;;19.63;73.05
48015;BME280;33780;51.034;7.120;2023-09-08T08:08:59;100939.97;;;19.70;72.39
48015;BME280;33780;51.034;7.120;2023-09-08T08:11:24;100933.63;;;19.78;72.21
48015;BME280;33780;51.034;7.120;2023-09-08T08:13:50;100926.41;;;19.85;71.84
48015;BME280;33780;51.034;7.120;2023-09-08T08:16:16;100937.22;;;19.93;72.37
48015;BME280;33780;51.034;7.120;2023-09-08T08:18:41;100936.44;;;19.99;71.87
48015;BME280;33780;51.034;7.120;2023-09-08T08:21:06;100933.81;;;20.06;71.84
48015;BME280;33780;51.034;7.120;2023-09-08T08:23:31;100933.06;;;20.12;71.60
48015;BME280;33780;51.034;7.120;2023-09-08T08:25:58;100940.28;;;20.19;71.48
48015;BME280;33780;51.034;7.120;2023-09-08T08:28:24;100941.19;;;20.27;71.64
48015;BME280;33780;51.034;7.120;2023-09-08T08:30:50;100932.28;;;20.33;71.61
48015;BME280;33780;51.034;7.120;2023-09-08T08:33:15;100938.84;;;20.38;70.99
48015;BME280;33780;51.034;7.120;2023-09-08T08:35:40;100935.38;;;20.44;71.09
48015;BME280;33780;51.034;7.120;2023-09-08T08:38:06;100935.28;;;20.52;70.87
48015;BME280;33780;51.034;7.120;2023-09-08T08:40:31;100929.06;;;20.59;71.07
48015;BME280;33780;51.034;7.120;2023-09-08T08:42:59;100930.84;;;20.66;70.75
48015;BME280;33780;51.034;7.120;2023-09-08T08:45:25;100929.03;;;20.73;70.83
48015;BME280;33780;51.034;7.120;2023-09-08T08:47:52;100930.31;;;20.77;70.38
48015;BME280;33780;51.034;7.120;2023-09-08T08:50:18;100927.69;;;20.84;70.23
48015;BME280;33780;51.034;7.120;2023-09-08T08:52:44;100921.25;;;20.92;70.42
48015;BME280;33780;51.034;7.120;2023-09-08T08:55:09;100925.06;;;20.97;70.20
48015;BME280;33780;51.034;7.120;2023-09-08T08:57:38;100931.44;;;21.04;69.88
48015;BME280;33780;51.034;7.120;2023-09-08T09:00:09;100924.16;;;21.11;69.53
48015;BME280;33780;51.034;7.120;2023-09-08T09:02:36;100934.09;;;21.19;69.52
48015;BME280;33780;51.034;7.120;2023-09-08T09:05:04;100927.69;;;21.27;69.45
48015;BME280;33780;51.034;7.120;2023-09-08T09:07:30;100925.84;;;21.34;68.94
48015;BME280;33780;51.034;7.120;2023-09-08T09:09:56;100923.19;;;21.40;69.17
48015;BME280;33780;51.034;7.120;2023-09-08T09:12:22;100928.50;;;21.49;68.95
48015;BME280;33780;51.034;7.120;2023-09-08T09:14:47;100923.94;;;21.56;68.53
48015;BME280;33780;51.034;7.120;2023-09-08T09:17:14;100926.72;;;21.62;68.34
48015;BME280;33780;51.034;7.120;2023-09-08T09:19:39;100923.38;;;21.67;68.22
48015;BME280;33780;51.034;7.120;2023-09-08T09:22:05;100927.84;;;21.75;68.38
48015;BME280;33780;51.034;7.120;2023-09-08T09:24:38;100925.78;;;21.83;68.09
48015;BME280;33780;51.034;7.120;2023-09-08T09:27:06;100925.19;;;21.88;67.76
48015;BME280;33780;51.034;7.120;2023-09-08T09:29:33;100926.28;;;21.93;67.30
48015;BME280;33780;51.034;7.120;2023-09-08T09:32:04;100926.09;;;22.01;67.29
48015;BME280;33780;51.034;7.120;2023-09-08T09:34:29;100933.50;;;22.08;66.91
48015;BME280;33780;51.034;7.120;2023-09-08T09:36:55;100920.13;;;22.13;66.58
48015;BME280;33780;51.034;7.120;2023-09-08T09:39:21;100915.53;;;22.20;66.70
48015;BME280;33780;51.034;7.120;2023-09-08T09:41:48;100919.16;;;22.27;66.88
48015;BME280;33780;51.034;7.120;2023-09-08T09:44:14;100906.56;;;22.33;66.32
48015;BME280;33780;51.034;7.120;2023-09-08T09:46:46;100915.81;;;22.38;66.34
48015;BME280;33780;51.034;7.120;2023-09-08T09:49:15;100910.41;;;22.45;66.42
48015;BME280;33780;51.034;7.120;2023-09-08T09:51:46;100915.88;;;22.51;66.06
48015;BME280;33780;51.034;7.120;2023-09-08T09:54:12;100917.56;;;22.59;66.21
48015;BME280;33780;51.034;7.120;2023-09-08T09:56:38;100923.91;;;22.66;65.53
48015;BME280;33780;51.034;7.120;2023-09-08T09:59:04;100920.97;;;22.74;65.47
48015;BME280;33780;51.034;7.120;2023-09-08T10:01:31;100920.81;;;22.82;65.30
48015;BME280;33780;51.034;7.120;2023-09-08T10:03:58;100919.13;;;22.88;64.89
48015;BME280;33780;51.034;7.120;2023-09-08T10:06:23;100915.34;;;22.96;64.67
48015;BME280;33780;51.034;7.120;2023-09-08T10:08:51;100906.34;;;23.02;64.55
48015;BME280;33780;51.034;7.120;2023-09-08T10:11:20;100911.81;;;23.08;64.13
48015;BME280;33780;51.034;7.120;2023-09-08T10:13:46;100907.19;;;23.15;64.42
48015;BME280;33780;51.034;7.120;2023-09-08T10:16:16;100912.88;;;23.20;63.79
48015;BME280;33780;51.034;7.120;2023-09-08T10:18:46;100911.59;;;23.30;63.67
48015;BME280;33780;51.034;7.120;2023-09-08T10:21:13;100909.09;;;23.35;63.06
48015;BME280;33780;51.034;7.120;2023-09-08T10:23:42;100903.41;;;23.43;63.61
48015;BME280;33780;51.034;7.120;2023-09-08T10:26:12;100902.34;;;23.50;63.26
48015;BME280;33780;51.034;7.120;2023-09-08T10:28:39;100907.84;;;23.57;62.75
48015;BME280;33780;51.034;7.120;2023-09-08T10:31:05;100906.78;;;23.65;62.88
48015;BME280;33780;51.034;7.120;2023-09-08T10:33:32;100898.38;;;23.73;62.50
48015;BME280;33780;51.034;7.120;2023-09-08T10:35:59;100905.47;;;23.80;62.35
48015;BME280;33780;51.034;7.120;2023-09-08T10:38:29;100901.03;;;23.86;62.50
48015;BME280;33780;51.034;7.120;2023-09-08T10:43:45;100891.75;;;24.00;62.03
48015;BME280;33780;51.034;7.120;2023-09-08T10:46:12;100894.47;;;24.07;62.01
48015;BME280;33780;51.034;7.120;2023-09-08T10:48:45;100891.72;;;24.14;61.68
48015;BME280;33780;51.034;7.120;2023-09-08T10:51:15;100892.72;;;24.19;61.85
48015;BME280;33780;51.034;7.120;2023-09-08T10:53:42;100881.34;;;24.22;61.40
48015;BME280;33780;51.034;7.120;2023-09-08T10:56:11;100889.56;;;24.29;61.39
48015;BME280;33780;51.034;7.120;2023-09-08T10:58:40;100891.44;;;24.35;61.05
48015;BME280;33780;51.034;7.120;2023-09-08T11:01:16;100890.78;;;24.39;60.90
48015;BME280;33780;51.034;7.120;2023-09-08T11:03:59;100891.59;;;24.47;60.66
48015;BME280;33780;51.034;7.120;2023-09-08T11:06:34;100892.66;;;24.46;61.11
48015;BME280;33780;51.034;7.120;2023-09-08T11:09:06;100886.97;;;24.47;61.27
48015;BME280;33780;51.034;7.120;2023-09-08T11:11:33;100893.06;;;24.49;61.52
48015;BME280;33780;51.034;7.120;2023-09-08T11:13:58;100889.88;;;24.52;60.79
48015;BME280;33780;51.034;7.120;2023-09-08T11:16:24;100887.75;;;24.54;59.39
48015;BME280;33780;51.034;7.120;2023-09-08T11:18:54;100881.59;;;24.59;60.49
48015;BME280;33780;51.034;7.120;2023-09-08T11:21:19;100890.25;;;24.62;60.64
48015;BME280;33780;51.034;7.120;2023-09-08T11:23:55;100884.31;;;24.65;60.56
48015;BME280;33780;51.034;7.120;2023-09-08T11:26:21;100881.97;;;24.69;60.40
48015;BME280;33780;51.034;7.120;2023-09-08T11:28:49;100886.78;;;24.74;60.06
48015;BME280;33780;51.034;7.120;2023-09-08T11:31:14;100886.16;;;24.78;60.27
48015;BME280;33780;51.034;7.120;2023-09-08T11:33:40;100884.63;;;24.82;59.55
48015;BME280;33780;51.034;7.120;2023-09-08T11:36:12;100886.69;;;24.87;60.02
48015;BME280;33780;51.034;7.120;2023-09-08T11:38:45;100881.38;;;24.92;59.75
48015;BME280;33780;51.034;7.120;2023-09-08T11:41:11;100879.91;;;24.96;59.93
48015;BME280;33780;51.034;7.120;2023-09-08T11:43:39;100882.00;;;25.00;59.73
48015;BME280;33780;51.034;7.120;2023-09-08T11:46:04;100880.25;;;25.06;59.36
48015;BME280;33780;51.034;7.120;2023-09-08T11:48:31;100880.66;;;25.10;59.19
48015;BME280;33780;51.034;7.120;2023-09-08T11:50:56;100880.19;;;25.13;59.23
48015;BME280;33780;51.034;7.120;2023-09-08T11:53:22;100878.50;;;25.18;58.91
48015;BME280;33780;51.034;7.120;2023-09-08T11:55:48;100878.66;;;25.23;59.11
48015;BME280;33780;51.034;7.120;2023-09-08T11:58:14;100871.41;;;25.29;58.97
48015;BME280;33780;51.034;7.120;2023-09-08T12:00:40;100873.50;;;25.34;58.52
48015;BME280;33780;51.034;7.120;2023-09-08T12:03:10;100883.78;;;25.38;58.43
48015;BME280;33780;51.034;7.120;2023-09-08T12:05:36;100880.97;;;25.45;58.28
48015;BME280;33780;51.034;7.120;2023-09-08T12:08:03;100880.28;;;25.49;58.23
48015;BME280;33780;51.034;7.120;2023-09-08T12:10:30;100877.50;;;25.56;58.12
48015;BME280;33780;51.034;7.120;2023-09-08T12:12:55;100876.59;;;25.62;57.93
48015;BME280;33780;51.034;7.120;2023-09-08T12:15:33;100870.25;;;25.68;57.40
48015;BME280;33780;51.034;7.120;2023-09-08T12:18:02;100866.81;;;25.73;57.56
48015;BME280;33780;51.034;7.120;2023-09-08T12:20:28;100867.56;;;25.80;57.61
48015;BME280;33780;51.034;7.120;2023-09-08T12:22:53;100865.84;;;25.85;57.42
48015;BME280;33780;51.034;7.120;2023-09-08T12:25:19;100863.25;;;25.90;57.03
48015;BME280;33780;51.034;7.120;2023-09-08T12:27:46;100861.47;;;25.96;57.38
48015;BME280;33780;51.034;7.120;2023-09-08T12:30:19;100854.44;;;26.00;55.66
48015;BME280;33780;51.034;7.120;2023-09-08T12:32:48;100848.06;;;26.06;56.55
48015;BME280;33780;51.034;7.120;2023-09-08T12:35:20;100849.88;;;26.12;56.34
48015;BME280;33780;51.034;7.120;2023-09-08T12:37:59;100853.59;;;26.18;55.74
48015;BME280;33780;51.034;7.120;2023-09-08T12:40:26;100846.59;;;26.22;56.22
48015;BME280;33780;51.034;7.120;2023-09-08T12:42:51;100845.66;;;26.28;56.05
48015;BME280;33780;51.034;7.120;2023-09-08T12:45:18;100845.78;;;26.33;55.89
48015;BME280;33780;51.034;7.120;2023-09-08T12:47:43;100848.69;;;26.38;55.14